logo tempoitalia

Diretta Meteo Kursk, Russialunedì 31 agosto ore 08:00

Mappa
Sereno 20 °C Sereno 24 Ore: T.min 16 T.max 27
Ponente Sud/Sud-Ovest Km/h 14.4 Punto di rugiada: 11 °C Umidità: 56% Visibilità: 10 Km
Il sole sorge alle: 05:45 Il sole tramonta alle: 19:24
31 Agosto 2026 08:00 tempo osservato: Sereno Sereno 20 56 1020 vento: Nord S/SO 14.4
31 Agosto 2026 07:30 tempo osservato: Sereno Sereno 19 59 1020 vento: Nord SO 10.8
31 Agosto 2026 07:00 tempo osservato: Sereno Sereno 19 59 1020 vento: Nord S/SO 10.8
31 Agosto 2026 06:30 tempo osservato: Sereno Sereno 19 55 1020 vento: Nord SO 10.8
31 Agosto 2026 06:00 tempo osservato: Sereno Sereno 17 67 1020 vento: Nord S 10.8
31 Agosto 2026 05:30 tempo osservato: Sereno Sereno 17 67 1020 vento: Nord S 10.8
31 Agosto 2026 05:00 tempo osservato: Sereno Sereno 17 72 1020 vento: Nord S 10.8
31 Agosto 2026 04:30 tempo osservato: Sereno Sereno 17 72 1020 vento: Nord S/SE 14.4
31 Agosto 2026 04:00 tempo osservato: Sereno Sereno 16 77 1020 vento: Nord SE 14.4
31 Agosto 2026 03:30 tempo osservato: Sereno Sereno 16 72 1020 vento: Nord SE 14.4
31 Agosto 2026 03:00 tempo osservato: Sereno Sereno 16 72 1020 vento: Nord N 3.6
31 Agosto 2026 02:30 tempo osservato: Sereno Sereno 17 67 1020 vento: Nord S/SE 10.8
31 Agosto 2026 02:00 tempo osservato: Sereno Sereno 17 67 1020 vento: Nord SE 14.4
31 Agosto 2026 01:30 tempo osservato: Sereno Sereno 17 67 1020 vento: Nord SE 18
31 Agosto 2026 01:00 tempo osservato: Sereno Sereno 17 67 1020 vento: Nord SE 18
31 Agosto 2026 00:30 tempo osservato: Sereno Sereno 17 67 1020 vento: Nord SE 14.4
31 Agosto 2026 00:00 tempo osservato: Sereno Sereno 18 59 1020 vento: Nord S/SE 10.8
30 Agosto 2026 23:30 tempo osservato: Sereno Sereno 17 63 1020 vento: Nord S 10.8
30 Agosto 2026 23:00 tempo osservato: Sereno Sereno 18 59 1020 vento: Nord S 10.8
30 Agosto 2026 22:30 tempo osservato: Sereno Sereno 18 63 1020 vento: Nord S/SE 10.8
30 Agosto 2026 22:00 tempo osservato: Sereno Sereno 18 63 1020 vento: Nord S/SE 14.4
30 Agosto 2026 21:30 tempo osservato: Sereno Sereno 18 63 1020 vento: Nord SE 14.4
30 Agosto 2026 21:00 tempo osservato: Sereno Sereno 18 63 1020 vento: Nord SE 14.4
30 Agosto 2026 20:30 tempo osservato: Sereno Sereno 19 59 1020 vento: Nord SE 14.4
30 Agosto 2026 20:00 tempo osservato: Sereno Sereno 19 59 1020 vento: Nord S/SE 10.8
30 Agosto 2026 19:30 tempo osservato: Sereno Sereno 20 56 1019 vento: Nord SE 14.4
30 Agosto 2026 19:00 tempo osservato: Sereno Sereno 21 56 1019 vento: Nord SE 10.8
30 Agosto 2026 18:30 tempo osservato: Sereno Sereno 23 46 1019 vento: Nord S 10.8
30 Agosto 2026 18:00 tempo osservato: Sereno Sereno 26 39 1019 vento: Nord S/SO 10.8
30 Agosto 2026 17:30 tempo osservato: Sereno Sereno 26 39 1020 vento: Nord S/SO 14.4
30 Agosto 2026 17:00 tempo osservato: Sereno Sereno 27 36 1020 vento: Nord S/SO 18
30 Agosto 2026 16:30 tempo osservato: Sereno Sereno 27 36 1020 vento: Nord S 18
30 Agosto 2026 16:00 tempo osservato: Sereno Sereno 27 36 1020 vento: Nord S 21.6
30 Agosto 2026 15:30 tempo osservato: Sereno Sereno 27 36 1020 vento: Nord S/SE 21.6
30 Agosto 2026 15:00 tempo osservato: Sereno Sereno 27 36 1020 vento: Nord S 18
30 Agosto 2026 14:30 tempo osservato: Sereno Sereno 27 36 1020 vento: Nord S 18
30 Agosto 2026 14:00 tempo osservato: Sereno Sereno 26 36 1021 vento: Nord S/SE 18
30 Agosto 2026 13:30 tempo osservato: Sereno Sereno 26 39 1021 vento: Nord S 21.6
30 Agosto 2026 13:00 tempo osservato: Sereno Sereno 26 39 1021 vento: Nord S 21.6
30 Agosto 2026 12:30 tempo osservato: Sereno Sereno 26 39 1021 vento: Nord S 18
30 Agosto 2026 12:00 tempo osservato: Sereno Sereno 26 41 1021 vento: Nord S/SE 18
30 Agosto 2026 11:30 tempo osservato: Sereno Sereno 24 47 1021 vento: Nord S/SE 14.4
30 Agosto 2026 11:00 tempo osservato: Sereno Sereno 23 49 1022 vento: Nord S/SE 14.4
30 Agosto 2026 10:30 tempo osservato: Sereno Sereno 22 49 1022 vento: Nord S/SE 14.4
30 Agosto 2026 10:00 tempo osservato: Sereno Sereno 20 56 1022 vento: Nord S/SE 14.4
30 Agosto 2026 09:30 tempo osservato: Sereno Sereno 19 59 1022 vento: Nord S/SE 14.4
30 Agosto 2026 09:00 tempo osservato: Sereno Sereno 18 59 1022 vento: Nord S/SE 14.4